Time;durP1;ratioP1;P1;durP2;ratioP2;P2;SDS_P1;SDS_P2;PMS_P1;PMS_P2;Temp;Humidity;BMP_temperature;BMP_pressure;BME280_temperature;BME280_humidity;BME280_pressure;Samples;Min_cycle;Max_cycle;Signal;HPM_P1;HPM_P2
2024/02/05 00:00:27;;;;;;;0.93;0.90;;;5.60;98.70;;;;;;2047507;28;20259;-67
2024/02/05 00:01:28;;;;;;;1.10;0.90;;;5.60;98.80;;;;;;2061547;28;20321;-66
2024/02/05 00:02:29;;;;;;;1.07;0.83;;;5.60;98.70;;;;;;2061390;28;20701;-66
2024/02/05 00:03:29;;;;;;;1.00;0.90;;;5.60;98.90;;;;;;2061965;28;20253;-67
2024/02/05 00:04:30;;;;;;;1.73;0.87;;;5.60;98.80;;;;;;2064142;28;20694;-66
2024/02/05 00:05:31;;;;;;;0.60;0.60;;;5.60;98.80;;;;;;2062946;28;20229;-67
2024/02/05 00:06:31;;;;;;;2.40;0.80;;;5.50;98.90;;;;;;2062693;28;20312;-66
2024/02/05 00:07:32;;;;;;;0.87;0.83;;;5.60;98.80;;;;;;2063679;28;20241;-66
2024/02/05 00:08:32;;;;;;;1.00;0.90;;;5.60;98.80;;;;;;2063562;28;20293;-67
2024/02/05 00:09:33;;;;;;;0.60;0.60;;;5.70;98.70;;;;;;2064528;28;20233;-67
2024/02/05 00:10:34;;;;;;;0.97;0.80;;;5.60;98.60;;;;;;2062454;28;20717;-67
2024/02/05 00:11:34;;;;;;;2.30;1.10;;;5.70;98.60;;;;;;2063017;28;20585;-67
2024/02/05 00:12:35;;;;;;;2.60;1.10;;;5.70;98.60;;;;;;2062512;28;20226;-67
2024/02/05 00:13:36;;;;;;;1.00;0.90;;;5.60;98.50;;;;;;2059910;28;20318;-66
2024/02/05 00:14:37;;;;;;;3.67;0.80;;;5.70;98.40;;;;;;2061858;28;20226;-67
2024/02/05 00:15:37;;;;;;;1.20;0.70;;;5.70;98.20;;;;;;2063338;28;20234;-67
2024/02/05 00:16:38;;;;;;;1.07;0.80;;;5.70;98.10;;;;;;2063621;28;20279;-66
2024/02/05 00:17:40;;;;;;;0.60;0.60;;;5.60;98.00;;;;;;2063735;28;20229;-66
2024/02/05 00:18:41;;;;;;;0.65;0.65;;;5.60;98.20;;;;;;2062278;28;20238;-67
2024/02/05 00:19:42;;;;;;;1.58;0.70;;;5.60;97.90;;;;;;2060922;28;20321;-67
2024/02/05 00:20:42;;;;;;;0.70;0.70;;;5.70;97.90;;;;;;2063278;28;20234;-66
2024/02/05 00:21:43;;;;;;;0.60;0.60;;;5.70;97.90;;;;;;2053255;28;20761;-68
2024/02/05 00:22:45;;;;;;;0.90;0.83;;;5.70;98.20;;;;;;2060404;28;20230;-66
2024/02/05 00:23:46;;;;;;;1.23;0.80;;;5.60;98.10;;;;;;2063004;28;20349;-66
2024/02/05 00:24:46;;;;;;;0.77;0.63;;;5.50;98.20;;;;;;2059459;28;20233;-66
2024/02/05 00:25:47;;;;;;;1.33;0.70;;;5.60;98.60;;;;;;2063935;28;20226;-66
2024/02/05 00:26:48;;;;;;;1.83;0.83;;;5.60;98.50;;;;;;2063643;28;20230;-67
2024/02/05 00:27:48;;;;;;;0.70;0.70;;;5.50;98.60;;;;;;2063522;28;20697;-66
2024/02/05 00:28:49;;;;;;;1.10;0.70;;;5.50;98.50;;;;;;2063331;28;20580;-67
2024/02/05 00:29:50;;;;;;;0.67;0.50;;;5.50;98.60;;;;;;2054741;28;20237;-67
2024/02/05 00:30:50;;;;;;;1.57;0.60;;;5.40;98.70;;;;;;2058589;28;20228;-66
2024/02/05 00:31:51;;;;;;;0.90;0.67;;;5.40;98.80;;;;;;2057591;28;20223;-67
2024/02/05 00:32:52;;;;;;;0.70;0.70;;;5.40;99.00;;;;;;2062491;28;20273;-67
2024/02/05 00:33:53;;;;;;;1.17;0.70;;;5.30;99.40;;;;;;2064140;28;20225;-67
2024/02/05 00:34:56;;;;;;;1.17;0.83;;;5.30;99.10;;;;;;2062530;28;20217;-67
2024/02/05 00:35:56;;;;;;;0.65;0.60;;;5.30;99.30;;;;;;2055310;28;20250;-67
2024/02/05 00:36:58;;;;;;;1.97;0.83;;;5.30;99.40;;;;;;2054394;28;20693;-67
2024/02/05 00:37:58;;;;;;;1.48;0.60;;;5.30;99.40;;;;;;2057743;28;20218;-67
2024/02/05 00:38:59;;;;;;;1.30;0.60;;;5.30;99.90;;;;;;2062711;28;20254;-67
2024/02/05 00:40:00;;;;;;;1.13;0.80;;;5.20;99.90;;;;;;2064008;28;20261;-67
2024/02/05 00:41:00;;;;;;;0.80;0.80;;;5.20;99.90;;;;;;2061970;28;20309;-67
2024/02/05 00:42:01;;;;;;;0.63;0.60;;;5.10;99.90;;;;;;2058785;28;20194;-67
2024/02/05 00:43:02;;;;;;;0.50;0.50;;;5.10;99.90;;;;;;2062864;28;20190;-67
2024/02/05 00:44:03;;;;;;;2.17;0.80;;;5.10;99.90;;;;;;2062025;28;20274;-66
2024/02/05 00:45:05;;;;;;;2.40;0.60;;;5.00;99.90;;;;;;2063044;28;20187;-66
2024/02/05 00:46:05;;;;;;;3.90;0.70;;;5.00;99.90;;;;;;2055579;28;20639;-66
2024/02/05 00:47:06;;;;;;;0.70;0.60;;;5.00;99.90;;;;;;2049283;28;20220;-66
2024/02/05 00:48:07;;;;;;;1.30;0.60;;;5.00;99.90;;;;;;2060448;28;20678;-66
2024/02/05 00:49:07;;;;;;;1.80;0.73;;;5.00;99.90;;;;;;2055887;28;20250;-67
2024/02/05 00:50:09;;;;;;;1.27;0.70;;;4.90;99.90;;;;;;2063441;28;20610;-67
2024/02/05 00:51:09;;;;;;;1.70;0.85;;;4.80;99.90;;;;;;2046265;28;20242;-67
2024/02/05 00:52:10;;;;;;;1.40;0.80;;;4.80;99.90;;;;;;2052290;28;20245;-67
2024/02/05 00:53:11;;;;;;;1.98;0.82;;;4.80;99.90;;;;;;2057377;28;20270;-66
2024/02/05 00:54:12;;;;;;;1.53;0.73;;;4.80;99.90;;;;;;2049177;28;20192;-66
2024/02/05 00:55:12;;;;;;;2.70;0.80;;;4.80;99.90;;;;;;2062989;28;20186;-67
2024/02/05 00:56:13;;;;;;;2.77;0.90;;;4.70;99.90;;;;;;2062837;28;20209;-67
2024/02/05 00:57:14;;;;;;;0.90;0.60;;;4.70;99.90;;;;;;2059869;28;20705;-66
2024/02/05 00:58:15;;;;;;;2.83;0.77;;;4.80;99.90;;;;;;2062126;28;20424;-67
2024/02/05 00:59:15;;;;;;;1.03;0.80;;;4.80;99.90;;;;;;2062495;28;20182;-66
2024/02/05 01:00:16;;;;;;;0.97;0.87;;;4.80;99.90;;;;;;2062906;28;20686;-66
2024/02/05 01:01:17;;;;;;;1.60;0.85;;;4.70;99.90;;;;;;2059223;28;20182;-67
2024/02/05 01:02:18;;;;;;;1.40;1.20;;;4.70;99.90;;;;;;2050992;28;20184;-67
2024/02/05 01:03:19;;;;;;;1.57;0.90;;;4.60;99.90;;;;;;2063321;28;20646;-66
2024/02/05 01:04:19;;;;;;;1.73;1.00;;;4.50;99.90;;;;;;2061973;28;20273;-66
2024/02/05 01:05:20;;;;;;;2.00;1.10;;;4.50;99.90;;;;;;2062593;28;20232;-66
2024/02/05 01:06:21;;;;;;;1.30;1.10;;;4.40;99.90;;;;;;2054655;28;20269;-66
2024/02/05 01:07:22;;;;;;;1.50;0.73;;;4.50;99.90;;;;;;2048430;28;20690;-67
2024/02/05 01:08:22;;;;;;;1.33;1.10;;;4.50;99.90;;;;;;2053143;28;20960;-67
2024/02/05 01:09:25;;;;;;;1.07;0.90;;;4.50;99.90;;;;;;2061654;28;20667;-67
2024/02/05 01:10:25;;;;;;;2.28;0.90;;;4.50;99.90;;;;;;2061888;28;21045;-67
2024/02/05 01:11:26;;;;;;;1.53;1.00;;;4.50;99.90;;;;;;2059560;28;20273;-67
2024/02/05 01:12:27;;;;;;;1.20;0.87;;;4.50;99.90;;;;;;2062561;28;20321;-67
2024/02/05 01:13:29;;;;;;;1.60;0.90;;;4.50;99.90;;;;;;2052604;28;20237;-67
2024/02/05 01:14:30;;;;;;;1.20;0.93;;;4.40;99.90;;;;;;2062006;28;20233;-67
2024/02/05 01:15:30;;;;;;;1.30;1.17;;;4.40;99.90;;;;;;2063031;28;20746;-67
2024/02/05 01:16:31;;;;;;;2.90;1.30;;;4.40;99.90;;;;;;2061616;28;20237;-67
2024/02/05 01:17:32;;;;;;;2.05;1.15;;;4.40;99.90;;;;;;2054376;28;20357;-67
2024/02/05 01:18:33;;;;;;;2.72;0.80;;;4.40;99.90;;;;;;2053220;28;20841;-66
2024/02/05 01:19:34;;;;;;;1.57;1.00;;;4.40;99.90;;;;;;2061768;28;20225;-66
2024/02/05 01:20:34;;;;;;;1.50;1.10;;;4.40;99.90;;;;;;2060356;28;20234;-67
2024/02/05 01:21:35;;;;;;;1.80;1.10;;;4.30;99.90;;;;;;2062952;28;20645;-66
2024/02/05 01:22:38;;;;;;;1.23;1.13;;;4.30;99.90;;;;;;2062846;28;20234;-66
2024/02/05 01:23:38;;;;;;;1.38;1.02;;;4.30;99.90;;;;;;2062598;28;20226;-66
2024/02/05 01:24:39;;;;;;;4.37;1.30;;;4.20;99.90;;;;;;2062312;28;20233;-66
2024/02/05 01:25:40;;;;;;;1.13;1.00;;;4.20;99.90;;;;;;2062884;28;20882;-66
2024/02/05 01:26:41;;;;;;;1.30;0.80;;;4.10;99.90;;;;;;2063230;28;20264;-66
2024/02/05 01:27:42;;;;;;;1.93;1.20;;;4.10;99.90;;;;;;2061482;28;20230;-66
2024/02/05 01:28:42;;;;;;;1.53;0.90;;;4.10;99.90;;;;;;2054007;28;20320;-66
2024/02/05 01:29:43;;;;;;;3.23;1.03;;;4.10;99.90;;;;;;2060094;28;20660;-67
2024/02/05 01:30:44;;;;;;;2.40;1.10;;;4.10;99.90;;;;;;2063261;28;20313;-66
2024/02/05 01:31:45;;;;;;;2.97;1.33;;;4.10;99.90;;;;;;2062928;28;20281;-67
2024/02/05 01:32:45;;;;;;;1.20;1.10;;;4.10;99.90;;;;;;2067519;28;20343;-66
2024/02/05 01:33:46;;;;;;;2.73;1.23;;;4.10;99.90;;;;;;2066174;28;20617;-67
2024/02/05 01:34:47;;;;;;;3.10;1.30;;;4.00;99.90;;;;;;2068177;28;20229;-67
2024/02/05 01:35:48;;;;;;;3.40;1.20;;;4.00;99.90;;;;;;2070110;28;20241;-67
2024/02/05 01:36:49;;;;;;;2.40;1.48;;;3.90;99.90;;;;;;2062335;28;20478;-67
2024/02/05 01:37:49;;;;;;;1.60;1.23;;;3.90;99.90;;;;;;2062395;28;20595;-67
2024/02/05 01:38:50;;;;;;;1.70;1.47;;;3.80;99.90;;;;;;2061548;28;20358;-67
2024/02/05 01:39:51;;;;;;;1.47;1.37;;;3.80;99.90;;;;;;2070363;28;20229;-67
2024/02/05 01:40:52;;;;;;;2.57;1.60;;;3.70;99.90;;;;;;2069780;28;20228;-66
2024/02/05 01:41:52;;;;;;;1.70;1.47;;;3.80;99.90;;;;;;2060092;28;22257;-67
2024/02/05 01:42:53;;;;;;;3.53;1.67;;;3.80;99.90;;;;;;2062992;28;20222;-67
2024/02/05 01:43:54;;;;;;;2.30;1.50;;;3.80;99.90;;;;;;2062381;28;20767;-66
2024/02/05 01:44:55;;;;;;;4.78;1.60;;;3.70;99.90;;;;;;2051289;28;20228;-66
2024/02/05 01:45:56;;;;;;;3.70;1.87;;;3.60;99.90;;;;;;2060319;28;20726;-66
2024/02/05 01:46:57;;;;;;;2.05;1.50;;;3.60;99.90;;;;;;2061767;28;20250;-67
2024/02/05 01:47:58;;;;;;;2.27;1.77;;;3.50;99.90;;;;;;2054335;28;20270;-66
2024/02/05 01:49:06;;;;;;;4.87;1.70;;;3.50;99.90;;;;;;2054673;28;20246;-66
2024/02/05 01:50:14;;;;;;;2.25;1.90;;;3.50;99.90;;;;;;2059780;28;20613;-66
2024/02/05 01:51:17;;;;;;;2.63;1.50;;;3.50;99.90;;;;;;2058038;28;20210;-66
2024/02/05 01:52:19;;;;;;;2.55;1.52;;;3.40;99.90;;;;;;2061122;28;20182;-66
2024/02/05 01:53:21;;;;;;;2.95;2.13;;;3.40;99.90;;;;;;2054376;28;20183;-66
2024/02/05 01:54:23;;;;;;;4.35;1.38;;;3.50;99.90;;;;;;2046290;28;20322;-65
2024/02/05 01:55:27;;;;;;;2.80;1.55;;;3.50;99.90;;;;;;2046101;28;20954;-66
2024/02/05 01:56:33;;;;;;;1.85;1.67;;;3.50;99.90;;;;;;2053926;28;20255;-66
2024/02/05 01:57:34;;;;;;;2.13;1.60;;;3.50;99.90;;;;;;2054031;28;20269;-66
2024/02/05 01:58:36;;;;;;;3.53;2.30;;;3.40;99.90;;;;;;2051264;28;20300;-66
2024/02/05 01:59:38;;;;;;;2.90;1.63;;;3.50;99.90;;;;;;2064504;28;20238;-66
2024/02/05 02:00:38;;;;;;;1.98;1.70;;;3.50;99.90;;;;;;2068570;28;20245;-66
2024/02/05 02:01:41;;;;;;;4.30;1.87;;;3.60;99.90;;;;;;2057437;28;20232;-66
2024/02/05 02:02:43;;;;;;;2.13;1.50;;;3.50;99.90;;;;;;2054372;28;20365;-66
2024/02/05 02:03:46;;;;;;;3.05;1.67;;;3.60;99.90;;;;;;2061631;28;20239;-67
2024/02/05 02:04:47;;;;;;;3.60;1.50;;;3.60;99.90;;;;;;2056334;28;20284;-66
2024/02/05 02:05:48;;;;;;;2.47;1.30;;;3.50;99.90;;;;;;2042356;28;20322;-66
2024/02/05 02:06:51;;;;;;;4.75;1.95;;;3.60;99.90;;;;;;2048494;28;20714;-66
2024/02/05 02:07:52;;;;;;;2.03;1.30;;;3.60;99.90;;;;;;2060057;28;20261;-67
2024/02/05 02:08:53;;;;;;;2.03;1.30;;;3.60;99.90;;;;;;2061381;28;20241;-66
2024/02/05 02:09:54;;;;;;;3.25;1.70;;;3.60;99.90;;;;;;2067675;28;20264;-67
2024/02/05 02:10:55;;;;;;;3.50;1.50;;;3.70;99.90;;;;;;2056011;28;20574;-66
2024/02/05 02:11:57;;;;;;;4.03;1.30;;;3.70;99.90;;;;;;2050276;28;20236;-66
2024/02/05 02:12:58;;;;;;;1.92;1.23;;;3.80;99.90;;;;;;2051344;28;20230;-66
2024/02/05 02:13:58;;;;;;;5.35;1.50;;;3.90;99.90;;;;;;2052137;28;20230;-66
2024/02/05 02:15:00;;;;;;;1.97;1.40;;;3.90;99.90;;;;;;2061209;28;20229;-66
2024/02/05 02:16:05;;;;;;;2.08;1.45;;;3.90;99.90;;;;;;2059209;28;20348;-66
2024/02/05 02:17:06;;;;;;;3.92;1.42;;;3.90;99.90;;;;;;2058127;28;20225;-66
2024/02/05 02:18:09;;;;;;;3.37;0.97;;;3.80;99.90;;;;;;2057854;28;20181;-66
2024/02/05 02:19:48;;;;;;;4.55;0.98;;;3.80;99.90;;;;;;2060560;28;20179;-67
2024/02/05 02:20:52;;;;;;;1.55;1.17;;;3.90;99.90;;;;;;2057474;28;20230;-67
2024/02/05 02:22:23;;;;;;;4.80;1.63;;;3.90;99.90;;;;;;2045685;28;20769;-67
2024/02/05 02:23:29;;;;;;;3.17;1.23;;;3.90;99.90;;;;;;2057005;28;20605;-66
2024/02/05 02:24:32;;;;;;;4.07;1.35;;;3.90;99.90;;;;;;2061008;28;20225;-67
2024/02/05 02:25:32;;;;;;;1.98;1.20;;;3.90;99.90;;;;;;2059968;28;20284;-66
2024/02/05 02:26:33;;;;;;;1.67;1.20;;;3.90;99.90;;;;;;2051522;28;20246;-67
2024/02/05 02:27:34;;;;;;;2.97;1.20;;;3.90;99.90;;;;;;2061285;28;20240;-65
2024/02/05 02:28:34;;;;;;;2.17;1.10;;;3.90;99.90;;;;;;2056646;28;20226;-66
2024/02/05 02:29:35;;;;;;;5.13;1.40;;;4.00;99.90;;;;;;2062674;28;20242;-67
2024/02/05 02:30:37;;;;;;;2.77;1.27;;;3.90;99.90;;;;;;2052795;28;20238;-66
2024/02/05 02:31:38;;;;;;;3.40;1.25;;;3.90;99.90;;;;;;2045472;28;20235;-67
2024/02/05 02:33:01;;;;;;;2.35;0.98;;;3.90;99.90;;;;;;2052955;28;20305;-66
2024/02/05 02:34:12;;;;;;;2.35;1.20;;;3.90;99.90;;;;;;2048978;28;20284;-66
2024/02/05 02:35:23;;;;;;;3.05;1.20;;;3.80;99.90;;;;;;2053936;28;20198;-67
2024/02/05 02:36:36;;;;;;;3.42;1.40;;;3.80;99.90;;;;;;2047465;28;20253;-66
2024/02/05 02:37:46;;;;;;;4.15;1.30;;;3.80;99.90;;;;;;2045683;28;20238;-67
2024/02/05 02:38:57;;;;;;;2.13;0.80;;;3.80;99.90;;;;;;2038563;28;20242;-66
2024/02/05 02:40:14;;;;;;;2.28;1.25;;;3.70;99.90;;;;;;2046026;28;20247;-67
2024/02/05 02:41:32;;;;;;;3.20;1.15;;;3.70;99.90;;;;;;2050235;28;20585;-67
2024/02/05 02:42:40;;;;;;;4.07;0.90;;;3.70;99.90;;;;;;2056046;28;20624;-66
2024/02/05 02:43:54;;;;;;;4.78;1.30;;;3.70;99.90;;;;;;2051744;28;20230;-66
2024/02/05 02:44:56;;;;;;;5.03;1.33;;;3.60;99.90;;;;;;2049364;28;20686;-67
2024/02/05 02:45:57;;;;;;;3.05;1.20;;;3.70;99.90;;;;;;2058938;28;20910;-67
2024/02/05 02:47:01;;;;;;;2.90;0.88;;;3.70;99.90;;;;;;2060677;28;20214;-67
2024/02/05 02:48:01;;;;;;;3.53;0.90;;;3.70;99.90;;;;;;2059613;28;20221;-66
2024/02/05 02:49:02;;;;;;;2.43;1.07;;;3.70;99.90;;;;;;2051141;28;20194;-67
2024/02/05 02:50:04;;;;;;;5.27;1.03;;;3.70;99.90;;;;;;2051633;28;20190;-66
2024/02/05 02:51:04;;;;;;;1.48;0.80;;;3.80;99.90;;;;;;2052461;28;20974;-65
2024/02/05 02:52:05;;;;;;;1.57;1.33;;;3.80;99.90;;;;;;2061138;28;20189;-67
2024/02/05 02:53:07;;;;;;;1.83;1.10;;;3.80;99.90;;;;;;2061732;28;20188;-66
2024/02/05 02:54:08;;;;;;;3.67;0.90;;;3.70;99.90;;;;;;2043803;28;20640;-67
2024/02/05 02:55:09;;;;;;;2.67;1.13;;;3.70;99.90;;;;;;2052206;28;20181;-67
2024/02/05 02:56:10;;;;;;;2.23;0.90;;;3.70;99.90;;;;;;2059419;28;20636;-66
2024/02/05 02:57:14;;;;;;;2.05;0.93;;;3.70;99.90;;;;;;2049934;28;20179;-67
2024/02/05 02:58:15;;;;;;;1.63;1.00;;;3.70;99.90;;;;;;2061463;28;20183;-66
2024/02/05 02:59:16;;;;;;;2.73;1.10;;;3.80;99.90;;;;;;2061755;28;20189;-67
2024/02/05 03:00:17;;;;;;;8.23;1.10;;;3.80;99.90;;;;;;2062073;28;20205;-66
2024/02/05 03:01:18;;;;;;;3.33;1.10;;;3.70;99.90;;;;;;2061580;28;20791;-67
2024/02/05 03:02:20;;;;;;;1.37;1.00;;;3.70;99.90;;;;;;2058737;28;20213;-67
2024/02/05 03:03:20;;;;;;;4.13;1.35;;;3.70;99.90;;;;;;2049482;28;20202;-67
2024/02/05 03:04:21;;;;;;;1.97;1.20;;;3.70;99.90;;;;;;2061169;28;20276;-67
2024/02/05 03:05:22;;;;;;;1.43;1.07;;;3.70;99.90;;;;;;2061661;28;20226;-67
2024/02/05 03:06:22;;;;;;;3.80;1.73;;;3.70;99.90;;;;;;2061553;28;20225;-66
2024/02/05 03:07:23;;;;;;;2.80;1.33;;;3.60;99.90;;;;;;2056989;28;20248;-67
2024/02/05 03:08:24;;;;;;;2.20;1.00;;;3.60;99.90;;;;;;2062528;28;20255;-67
2024/02/05 03:09:25;;;;;;;1.85;1.38;;;3.50;99.90;;;;;;2052672;28;20230;-67
2024/02/05 03:10:25;;;;;;;4.07;1.30;;;3.50;99.90;;;;;;2047789;28;20814;-66
2024/02/05 03:11:26;;;;;;;3.40;1.70;;;3.50;99.90;;;;;;2053173;28;20246;-66
2024/02/05 03:12:27;;;;;;;5.50;1.20;;;3.50;99.90;;;;;;2051825;28;20237;-67
2024/02/05 03:13:27;;;;;;;3.20;1.30;;;3.40;99.90;;;;;;2061514;28;20245;-66
2024/02/05 03:14:28;;;;;;;2.20;1.20;;;3.40;99.90;;;;;;2062833;28;20701;-66
2024/02/05 03:15:29;;;;;;;3.13;1.60;;;3.40;99.90;;;;;;2060850;28;20812;-66
2024/02/05 03:16:31;;;;;;;2.80;1.20;;;3.40;99.90;;;;;;2052874;28;20242;-67
2024/02/05 03:17:32;;;;;;;7.05;1.25;;;3.30;99.90;;;;;;2060374;28;20225;-67
2024/02/05 03:18:32;;;;;;;6.53;1.50;;;3.40;99.90;;;;;;2060987;28;20229;-66
2024/02/05 03:19:33;;;;;;;5.37;1.70;;;3.40;99.90;;;;;;2053104;28;20231;-66
2024/02/05 03:20:39;;;;;;;1.63;1.33;;;3.30;99.90;;;;;;2057065;28;20276;-66
2024/02/05 03:21:40;;;;;;;2.45;1.40;;;3.30;99.90;;;;;;2055550;28;20653;-67
2024/02/05 03:22:41;;;;;;;3.67;1.43;;;3.40;99.90;;;;;;2062110;28;20272;-67
2024/02/05 03:23:43;;;;;;;6.13;1.13;;;3.40;99.90;;;;;;2060880;28;20329;-66
2024/02/05 03:24:44;;;;;;;3.40;1.38;;;3.40;99.90;;;;;;2059786;28;20271;-67
2024/02/05 03:25:45;;;;;;;2.13;1.17;;;3.40;99.90;;;;;;2058784;28;20233;-67
2024/02/05 03:26:45;;;;;;;1.93;1.20;;;3.40;99.90;;;;;;2069426;28;20828;-66
2024/02/05 03:27:46;;;;;;;4.43;1.30;;;3.50;99.90;;;;;;2067470;28;20288;-66
2024/02/05 03:28:47;;;;;;;1.80;1.33;;;3.40;99.90;;;;;;2058123;28;20260;-67
2024/02/05 03:29:47;;;;;;;2.23;1.30;;;3.40;99.90;;;;;;2061480;28;20317;-66
2024/02/05 03:30:48;;;;;;;5.57;1.63;;;3.40;99.90;;;;;;2068974;28;20235;-66
2024/02/05 03:31:49;;;;;;;2.77;1.40;;;3.30;99.90;;;;;;2068798;28;20754;-67
2024/02/05 03:32:50;;;;;;;2.30;1.30;;;3.30;99.90;;;;;;2067557;28;20240;-67
2024/02/05 03:33:50;;;;;;;2.50;1.20;;;3.30;99.90;;;;;;2060697;28;20312;-66
2024/02/05 03:34:51;;;;;;;2.83;1.57;;;3.20;99.90;;;;;;2052204;28;20230;-67
2024/02/05 03:35:52;;;;;;;3.43;1.50;;;3.20;99.90;;;;;;2061170;28;20709;-66
2024/02/05 03:36:52;;;;;;;1.87;1.10;;;3.20;99.90;;;;;;2067773;28;20359;-67
2024/02/05 03:37:54;;;;;;;4.20;1.80;;;3.20;99.90;;;;;;2056913;28;20234;-67
2024/02/05 03:38:55;;;;;;;5.30;1.45;;;3.30;99.90;;;;;;2058646;28;21670;-67
2024/02/05 03:39:55;;;;;;;11.00;1.33;;;3.30;99.90;;;;;;2058772;28;20237;-67
2024/02/05 03:40:56;;;;;;;4.20;1.70;;;3.20;99.90;;;;;;2059839;28;20248;-66
2024/02/05 03:41:57;;;;;;;4.18;1.27;;;3.20;99.90;;;;;;2059222;28;20274;-67
2024/02/05 03:42:58;;;;;;;2.73;1.20;;;3.20;99.90;;;;;;2061589;28;20705;-67
2024/02/05 03:43:59;;;;;;;4.70;1.47;;;3.20;99.90;;;;;;2062889;28;20237;-67
2024/02/05 03:45:00;;;;;;;2.40;1.23;;;3.30;99.90;;;;;;2061525;28;20222;-67
2024/02/05 03:46:01;;;;;;;1.53;1.20;;;3.30;99.90;;;;;;2060810;28;20218;-67
2024/02/05 03:47:01;;;;;;;4.10;1.23;;;3.30;99.90;;;;;;2060843;28;20319;-65
2024/02/05 03:48:02;;;;;;;4.13;1.20;;;3.30;99.90;;;;;;2062090;28;20205;-66
2024/02/05 03:49:03;;;;;;;2.60;1.47;;;3.30;99.90;;;;;;2061962;28;20647;-67
2024/02/05 03:50:04;;;;;;;2.27;1.30;;;3.30;99.90;;;;;;2054373;28;20190;-66
2024/02/05 03:51:05;;;;;;;4.18;1.17;;;3.30;99.90;;;;;;2060172;28;20214;-66
2024/02/05 03:52:06;;;;;;;2.57;1.30;;;3.30;99.90;;;;;;2060564;28;20193;-66
2024/02/05 03:53:06;;;;;;;5.47;1.50;;;3.30;99.90;;;;;;2060266;28;20186;-66
2024/02/05 03:54:07;;;;;;;5.77;1.20;;;3.30;99.90;;;;;;2058035;28;20258;-67
2024/02/05 03:55:09;;;;;;;5.03;1.60;;;3.20;99.90;;;;;;2060255;28;20317;-66
2024/02/05 03:56:12;;;;;;;6.78;1.50;;;3.20;99.90;;;;;;2053606;28;20683;-66
2024/02/05 03:57:14;;;;;;;2.08;1.38;;;3.20;99.90;;;;;;2055498;28;20318;-67
2024/02/05 03:58:15;;;;;;;4.63;1.38;;;3.30;99.90;;;;;;2050427;28;20668;-67
2024/02/05 03:59:16;;;;;;;4.63;1.70;;;3.20;99.90;;;;;;2057420;28;20229;-66
2024/02/05 04:00:20;;;;;;;6.78;1.85;;;3.20;99.90;;;;;;2059179;28;20744;-66
2024/02/05 04:01:21;;;;;;;5.45;1.50;;;3.20;99.90;;;;;;2060692;28;20225;-66
2024/02/05 04:02:21;;;;;;;3.13;0.97;;;3.20;99.90;;;;;;2060061;28;20228;-67
2024/02/05 04:03:22;;;;;;;2.63;1.50;;;3.20;99.90;;;;;;2061080;28;20265;-67
2024/02/05 04:04:24;;;;;;;12.70;2.13;;;3.20;99.90;;;;;;2054471;28;20260;-67
2024/02/05 04:05:28;;;;;;;4.80;1.23;;;3.20;99.90;;;;;;2060679;28;20604;-66
2024/02/05 04:06:28;;;;;;;4.60;1.45;;;3.20;99.90;;;;;;2060042;28;20225;-66
2024/02/05 04:07:29;;;;;;;3.30;1.53;;;3.30;99.90;;;;;;2061110;28;20263;-67
2024/02/05 04:08:30;;;;;;;2.37;1.10;;;3.20;99.90;;;;;;2062590;28;20233;-67
2024/02/05 04:09:30;;;;;;;2.87;1.20;;;3.30;99.90;;;;;;2058816;28;20222;-67
2024/02/05 04:10:31;;;;;;;4.03;1.23;;;3.30;99.90;;;;;;2062774;28;20222;-66
2024/02/05 04:11:32;;;;;;;3.30;1.47;;;3.20;99.90;;;;;;2062523;28;20261;-65
2024/02/05 04:12:33;;;;;;;3.73;1.17;;;3.20;99.90;;;;;;2061468;28;20713;-67
2024/02/05 04:13:34;;;;;;;3.90;1.02;;;3.20;99.90;;;;;;2062736;28;20317;-66
2024/02/05 04:14:34;;;;;;;4.23;1.37;;;3.20;99.90;;;;;;2059202;28;20230;-66
2024/02/05 04:15:35;;;;;;;3.80;1.67;;;3.20;99.90;;;;;;2060831;28;20337;-66
2024/02/05 04:16:39;;;;;;;2.67;1.07;;;3.20;99.90;;;;;;2060549;28;20878;-65
2024/02/05 04:17:39;;;;;;;2.17;1.10;;;3.10;99.90;;;;;;2054531;28;20267;-66
2024/02/05 04:18:40;;;;;;;2.47;1.27;;;3.20;99.90;;;;;;2053011;28;20637;-66
2024/02/05 04:19:45;;;;;;;8.23;1.50;;;3.20;99.90;;;;;;2053635;28;20227;-66
2024/02/05 04:20:45;;;;;;;5.80;1.30;;;3.30;99.90;;;;;;2054972;28;20612;-66
2024/02/05 04:21:46;;;;;;;1.43;1.00;;;3.20;99.90;;;;;;2054537;28;20234;-66
2024/02/05 04:22:49;;;;;;;2.43;0.90;;;3.20;99.90;;;;;;2062160;28;20233;-66
2024/02/05 04:23:49;;;;;;;2.95;1.10;;;3.20;99.90;;;;;;2056937;28;20238;-66
2024/02/05 04:24:50;;;;;;;1.73;0.97;;;3.20;99.90;;;;;;2058415;28;20611;-66
2024/02/05 04:25:51;;;;;;;2.10;1.40;;;3.20;99.90;;;;;;2060183;28;20251;-66
2024/02/05 04:26:52;;;;;;;3.10;1.35;;;3.20;99.90;;;;;;2061792;28;20241;-66
2024/02/05 04:27:53;;;;;;;1.90;1.10;;;3.20;99.90;;;;;;2060450;28;20704;-66
2024/02/05 04:28:54;;;;;;;1.58;0.80;;;3.10;99.90;;;;;;2058553;28;20226;-66
2024/02/05 04:29:56;;;;;;;1.80;1.03;;;3.10;99.90;;;;;;2051297;28;20234;-66
2024/02/05 04:30:56;;;;;;;2.30;0.82;;;3.10;99.90;;;;;;2059435;28;20243;-65
2024/02/05 04:31:57;;;;;;;1.73;1.10;;;3.20;99.90;;;;;;2062063;28;20227;-66
2024/02/05 04:32:59;;;;;;;2.28;1.15;;;3.20;99.90;;;;;;2059042;28;20219;-67
2024/02/05 04:33:59;;;;;;;4.55;1.25;;;3.20;99.90;;;;;;2055178;28;20331;-66
2024/02/05 04:35:00;;;;;;;1.20;1.07;;;3.20;99.90;;;;;;2061223;28;20880;-67
2024/02/05 04:36:01;;;;;;;1.63;1.10;;;3.10;99.90;;;;;;2060644;28;20296;-65
2024/02/05 04:37:01;;;;;;;2.77;1.77;;;3.20;99.90;;;;;;2053755;28;20202;-66
2024/02/05 04:38:02;;;;;;;2.30;1.20;;;3.20;99.90;;;;;;2062586;28;20201;-67
2024/02/05 04:39:05;;;;;;;4.10;1.60;;;3.20;99.90;;;;;;2060027;28;20183;-66
2024/02/05 04:40:07;;;;;;;3.17;1.00;;;3.10;99.90;;;;;;2060863;28;20277;-66
2024/02/05 04:41:13;;;;;;;3.78;1.63;;;3.20;99.90;;;;;;2061372;28;20261;-66
2024/02/05 04:42:14;;;;;;;4.63;1.27;;;3.10;99.90;;;;;;2054318;28;20186;-66
2024/02/05 04:43:15;;;;;;;2.13;1.40;;;3.10;99.90;;;;;;2058466;28;20205;-67
2024/02/05 04:44:16;;;;;;;1.10;0.93;;;3.10;99.90;;;;;;2061700;28;20865;-66
2024/02/05 04:45:17;;;;;;;3.13;1.40;;;3.10;99.90;;;;;;2054840;28;20186;-66
2024/02/05 04:46:18;;;;;;;2.97;1.13;;;3.10;99.90;;;;;;2053762;28;20258;-67
2024/02/05 04:47:19;;;;;;;3.10;1.53;;;3.00;99.90;;;;;;2063644;28;20257;-66
2024/02/05 04:48:21;;;;;;;2.13;0.90;;;3.00;99.90;;;;;;2060817;28;20185;-66
2024/02/05 04:49:22;;;;;;;1.92;1.00;;;3.00;99.90;;;;;;2061510;28;20300;-66
2024/02/05 04:50:22;;;;;;;2.07;1.10;;;3.00;99.90;;;;;;2060542;28;20230;-67
2024/02/05 04:51:25;;;;;;;3.13;1.07;;;3.00;99.90;;;;;;2061186;28;20316;-65
2024/02/05 04:52:26;;;;;;;2.10;1.10;;;3.00;99.90;;;;;;2062185;28;20840;-66
2024/02/05 04:53:26;;;;;;;1.20;1.10;;;3.00;99.90;;;;;;2059355;28;20226;-67
2024/02/05 04:54:29;;;;;;;1.67;1.20;;;3.00;99.90;;;;;;2058332;28;20235;-68
2024/02/05 04:55:29;;;;;;;3.10;1.65;;;3.00;99.90;;;;;;2061345;28;20315;-66
2024/02/05 04:56:30;;;;;;;1.70;1.40;;;2.90;99.90;;;;;;2062087;28;20229;-66
2024/02/05 04:57:31;;;;;;;3.03;1.10;;;2.90;99.90;;;;;;2053117;28;20233;-66
2024/02/05 04:58:31;;;;;;;0.90;0.90;;;3.00;99.90;;;;;;2052085;28;20727;-66
2024/02/05 04:59:32;;;;;;;2.40;1.67;;;2.90;99.90;;;;;;2060543;28;20582;-67
2024/02/05 05:00:33;;;;;;;1.00;0.90;;;3.00;99.90;;;;;;2060750;28;20249;-67
2024/02/05 05:01:33;;;;;;;1.90;1.27;;;3.00;99.90;;;;;;2062274;28;20226;-66
2024/02/05 05:02:34;;;;;;;1.83;1.20;;;3.00;99.90;;;;;;2061871;28;20233;-67
2024/02/05 05:03:36;;;;;;;3.33;1.03;;;3.00;99.90;;;;;;2062487;28;20234;-66
2024/02/05 05:04:41;;;;;;;1.30;1.00;;;3.00;99.90;;;;;;2060450;28;20229;-65
2024/02/05 05:05:42;;;;;;;2.30;1.05;;;3.10;99.90;;;;;;2053612;28;20698;-66
2024/02/05 05:06:43;;;;;;;2.75;1.42;;;3.00;99.90;;;;;;2060422;28;21018;-66
2024/02/05 05:07:44;;;;;;;4.00;1.30;;;3.10;99.90;;;;;;2061282;28;20247;-66
2024/02/05 05:08:44;;;;;;;1.30;1.10;;;3.00;99.90;;;;;;2059810;28;20287;-67
2024/02/05 05:09:45;;;;;;;5.10;1.40;;;3.00;99.90;;;;;;2068444;28;20622;-66
2024/02/05 05:10:45;;;;;;;1.90;0.93;;;3.10;99.90;;;;;;2070030;28;20228;-66
2024/02/05 05:11:47;;;;;;;1.23;1.10;;;3.10;99.90;;;;;;2058211;28;20230;-67
2024/02/05 05:12:48;;;;;;;2.70;1.00;;;3.10;99.90;;;;;;2060284;28;20332;-66
2024/02/05 05:13:49;;;;;;;3.33;1.20;;;3.10;99.90;;;;;;2051903;28;20231;-66
2024/02/05 05:14:50;;;;;;;2.38;1.15;;;3.00;99.90;;;;;;2061086;28;20240;-66
2024/02/05 05:15:51;;;;;;;2.53;1.10;;;3.10;99.90;;;;;;2062006;28;20236;-67
2024/02/05 05:16:51;;;;;;;5.60;1.20;;;3.10;99.90;;;;;;2060983;28;20237;-66
2024/02/05 05:17:52;;;;;;;2.90;1.30;;;3.10;99.90;;;;;;2060654;28;20222;-66
2024/02/05 05:18:53;;;;;;;2.50;1.20;;;3.10;99.90;;;;;;2059444;28;20886;-66
2024/02/05 05:19:53;;;;;;;2.77;1.40;;;3.10;99.90;;;;;;2061459;28;20249;-66
2024/02/05 05:20:54;;;;;;;1.40;1.27;;;3.20;99.90;;;;;;2059165;28;20272;-66
2024/02/05 05:21:55;;;;;;;1.23;1.10;;;3.20;99.90;;;;;;2058212;28;20906;-67
2024/02/05 05:22:56;;;;;;;3.28;1.40;;;3.30;99.90;;;;;;2060074;28;20232;-66
2024/02/05 05:23:56;;;;;;;1.47;1.37;;;3.30;99.90;;;;;;2062190;28;21011;-66
2024/02/05 05:24:57;;;;;;;3.67;1.23;;;3.30;99.90;;;;;;2052187;28;20582;-66
2024/02/05 05:25:58;;;;;;;3.40;1.90;;;3.30;99.90;;;;;;2054669;28;20343;-65